Time;durP1;ratioP1;P1;durP2;ratioP2;P2;SDS_P1;SDS_P2;PMS_P1;PMS_P2;Temp;Humidity;BMP_temperature;BMP_pressure;BME280_temperature;BME280_humidity;BME280_pressure;Samples;Min_cycle;Max_cycle;Signal;HPM_P1;HPM_P2
2023/06/26 00:00:00;;;;;;;9.30;4.28;;;;;;;-144.47;75.80;52601.88;5049959;28;20189;-71
2023/06/26 00:02:25;;;;;;;6.13;3.25;;;;;;;-144.47;75.44;52591.94;5054483;28;20116;-72
2023/06/26 00:04:53;;;;;;;6.97;3.80;;;;;;;-144.47;76.54;52599.88;5049095;28;20028;-71
2023/06/26 00:07:20;;;;;;;17.13;4.60;;;;;;;-144.47;76.31;52613.78;5050084;28;20054;-72
2023/06/26 00:09:45;;;;;;;8.40;3.80;;;;;;;-144.47;76.46;52623.72;5050711;28;20115;-71
2023/06/26 00:12:11;;;;;;;5.40;3.25;;;;;;;-144.47;76.31;52629.69;5047925;22;20452;-65
2023/06/26 00:14:36;;;;;;;7.60;3.92;;;;;;;-144.47;76.56;52641.59;5029506;28;20040;-64
2023/06/26 00:17:02;;;;;;;8.60;3.95;;;;;;;-144.47;76.00;52641.59;5030240;28;20116;-65
2023/06/26 00:19:27;;;;;;;6.93;3.88;;;;;;;-144.47;76.26;52617.75;5030732;28;20037;-65
2023/06/26 00:21:52;;;;;;;6.70;3.92;;;;;;;-144.47;76.53;52593.94;5030939;28;20166;-65
2023/06/26 00:24:18;;;;;;;5.97;3.22;;;;;;;-144.47;76.34;52584.00;5030028;28;20108;-64
2023/06/26 00:26:46;;;;;;;7.03;3.55;;;;;;;-144.47;76.00;52609.81;5030650;28;20423;-62
2023/06/26 00:29:12;;;;;;;6.53;3.58;;;;;;;-144.47;76.12;52599.88;5030080;28;20520;-65
2023/06/26 00:31:38;;;;;;;9.35;3.40;;;;;;;-144.47;75.86;52603.84;5029121;28;20025;-65
2023/06/26 00:34:03;;;;;;;11.93;3.40;;;;;;;-144.47;75.78;52601.88;5012295;28;20024;-62
2023/06/26 00:36:28;;;;;;;9.23;3.67;;;;;;;-144.47;75.15;52605.84;5012486;28;20025;-65
2023/06/26 00:38:54;;;;;;;8.73;3.60;;;;;;;-144.47;75.16;52595.91;5030358;28;20027;-65
2023/06/26 00:41:19;;;;;;;8.70;4.07;;;;;;;-144.47;75.26;52631.66;5030161;28;20120;-65
2023/06/26 00:43:45;;;;;;;7.38;3.97;;;;;;;-144.47;74.99;52585.97;5030191;28;20044;-64
2023/06/26 00:46:13;;;;;;;7.07;3.60;;;;;;;-144.47;75.04;52613.78;5030373;28;20013;-61
2023/06/26 00:48:40;;;;;;;10.60;3.70;;;;;;;-144.47;75.24;52605.84;5030414;28;20105;-64
2023/06/26 00:51:06;;;;;;;7.65;3.63;;;;;;;-144.47;75.36;52627.69;5026080;28;20259;-65
2023/06/26 00:53:32;;;;;;;8.00;3.85;;;;;;;-144.47;75.66;52595.91;5029523;28;20033;-66
2023/06/26 00:55:58;;;;;;;7.13;3.20;;;;;;;-144.47;75.89;52607.84;5030075;28;20036;-67
2023/06/26 00:58:25;;;;;;;8.43;3.97;;;;;;;-144.47;75.66;52574.06;5030012;28;20048;-66
2023/06/26 01:00:51;;;;;;;10.82;4.05;;;;;;;-144.47;75.68;52585.97;5030460;28;20022;-64
2023/06/26 01:03:17;;;;;;;6.43;3.72;;;;;;;-144.47;76.36;52603.84;5030094;28;20080;-64
2023/06/26 01:05:45;;;;;;;8.15;4.03;;;;;;;-144.47;76.64;52615.78;5029652;28;20030;-67
2023/06/26 01:08:13;;;;;;;6.15;3.50;;;;;;;-144.47;76.48;52595.91;5030293;28;20021;-66
2023/06/26 01:10:38;;;;;;;10.75;3.63;;;;;;;-144.47;77.23;52589.97;5029771;28;20120;-67
2023/06/26 01:13:05;;;;;;;6.88;3.85;;;;;;;-144.47;77.87;52609.81;5012051;28;20112;-64
2023/06/26 01:15:30;;;;;;;10.93;4.35;;;;;;;-144.47;78.53;52607.84;5029775;28;20036;-66
2023/06/26 01:18:01;;;;;;;10.05;4.15;;;;;;;-144.47;78.34;52587.97;5012116;28;20029;-67
2023/06/26 01:20:27;;;;;;;7.22;4.07;;;;;;;-144.47;78.05;52591.94;5029649;28;20499;-67
2023/06/26 01:23:02;;;;;;;7.18;3.95;;;;;;;-144.47;77.82;52585.97;5029904;28;20073;-67
2023/06/26 01:25:38;;;;;;;12.77;4.28;;;;;;;-144.47;77.89;52621.72;5029164;28;20109;-65
2023/06/26 01:28:05;;;;;;;6.32;3.80;;;;;;;-144.47;78.09;52597.91;5028599;28;20459;-66
2023/06/26 01:30:32;;;;;;;7.65;4.65;;;;;;;-144.47;78.11;52611.81;5027038;28;20550;-66
2023/06/26 01:32:58;;;;;;;8.02;3.63;;;;;;;-144.47;77.53;52585.97;5029904;28;20065;-66
2023/06/26 01:35:25;;;;;;;13.15;4.32;;;;;;;-144.47;77.45;52613.78;5029237;28;20021;-66
2023/06/26 01:37:50;;;;;;;7.05;4.30;;;;;;;-144.47;77.65;52597.91;5029704;28;20036;-67
2023/06/26 01:40:15;;;;;;;8.18;3.88;;;;;;;-144.47;78.22;52603.84;5029591;28;20025;-65
2023/06/26 01:42:41;;;;;;;7.97;4.40;;;;;;;-144.47;78.04;52603.84;5029720;28;20025;-66
2023/06/26 01:45:18;;;;;;;6.63;3.83;;;;;;;-144.47;78.00;52625.72;5012104;28;20025;-63
2023/06/26 01:47:50;;;;;;;23.02;5.70;;;;;;;-144.47;78.01;52597.91;5029995;28;20116;-66
2023/06/26 01:50:24;;;;;;;7.78;4.40;;;;;;;-144.47;78.02;52621.72;5029989;28;20106;-66
2023/06/26 01:53:11;;;;;;;6.47;4.18;;;;;;;-144.47;78.30;52595.91;5023041;28;20047;-65
2023/06/26 01:55:50;;;;;;;7.18;4.20;;;;;;;-144.47;78.29;52582.00;5028289;28;20022;-66
2023/06/26 01:58:16;;;;;;;7.70;4.35;;;;;;;-144.47;78.89;52619.75;5029162;28;20033;-66
2023/06/26 02:00:42;;;;;;;8.02;4.47;;;;;;;-144.47;78.91;52578.03;5028298;28;20025;-63
2023/06/26 02:03:08;;;;;;;10.05;4.78;;;;;;;-144.47;79.27;52607.84;5029475;28;20022;-66
2023/06/26 02:05:33;;;;;;;10.52;4.90;;;;;;;-144.47;79.56;52599.88;5028775;28;20081;-66
2023/06/26 02:07:58;;;;;;;7.13;3.75;;;;;;;-144.47;80.31;52605.84;5029341;28;20213;-64
2023/06/26 02:10:24;;;;;;;11.00;4.70;;;;;;;-144.47;80.42;52625.72;5028998;28;20029;-62
2023/06/26 02:12:49;;;;;;;11.50;4.82;;;;;;;-144.47;80.40;52595.91;5029531;28;20122;-65
2023/06/26 02:15:15;;;;;;;9.63;4.32;;;;;;;-144.47;80.71;52597.91;5028627;28;20033;-64
2023/06/26 02:17:40;;;;;;;8.77;4.68;;;;;;;-144.47;80.98;52593.94;5029834;28;20452;-65
2023/06/26 02:20:07;;;;;;;7.82;4.30;;;;;;;-144.47;80.95;52613.78;5029965;28;20061;-65
2023/06/26 02:22:33;;;;;;;9.65;4.82;;;;;;;-144.47;81.30;52621.72;5030428;28;20026;-64
2023/06/26 02:24:58;;;;;;;9.73;4.85;;;;;;;-144.47;80.92;52587.97;5028144;28;20018;-65
2023/06/26 02:27:23;;;;;;;10.27;4.50;;;;;;;-144.47;80.40;52611.81;5030137;28;20048;-63
2023/06/26 02:29:49;;;;;;;9.30;4.90;;;;;;;-144.47;81.14;52578.03;5027158;28;20096;-65
2023/06/26 02:32:14;;;;;;;7.47;4.50;;;;;;;-144.47;81.46;52613.78;5028733;28;20021;-67
2023/06/26 02:34:39;;;;;;;9.35;4.45;;;;;;;-144.47;81.68;52568.13;5028617;28;20448;-64
2023/06/26 02:37:07;;;;;;;8.73;4.88;;;;;;;-144.47;81.46;52597.91;5029010;28;20030;-64
2023/06/26 02:39:33;;;;;;;13.40;4.20;;;;;;;-144.47;81.18;52601.88;5028989;28;20541;-66
2023/06/26 02:41:58;;;;;;;9.43;4.18;;;;;;;-144.47;81.52;52601.88;5033260;28;20025;-64
2023/06/26 02:44:23;;;;;;;12.05;4.80;;;;;;;-144.47;81.84;52617.75;5032452;28;20494;-64
2023/06/26 02:46:48;;;;;;;11.43;4.97;;;;;;;-144.47;81.98;52611.81;5032550;28;20468;-67
2023/06/26 02:49:14;;;;;;;10.20;4.50;;;;;;;-144.47;82.54;52597.91;5031609;28;20029;-65
2023/06/26 02:51:39;;;;;;;7.65;4.85;;;;;;;-144.47;82.47;52609.81;5032254;28;20032;-65
2023/06/26 02:54:05;;;;;;;9.75;4.50;;;;;;;-144.47;82.53;52603.84;5027555;28;20028;-64
2023/06/26 02:56:30;;;;;;;15.60;4.68;;;;;;;-144.47;82.84;52601.88;5031338;28;20068;-61
2023/06/26 02:58:56;;;;;;;7.45;4.85;;;;;;;-144.47;83.20;52607.84;5032494;28;20026;-65
2023/06/26 03:01:21;;;;;;;8.63;4.00;;;;;;;-144.47;83.81;52582.00;5032130;28;20371;-65
2023/06/26 03:03:47;;;;;;;11.07;4.93;;;;;;;-144.47;84.01;52597.91;5012373;28;20028;-65
2023/06/26 03:06:13;;;;;;;7.93;4.28;;;;;;;-144.47;83.99;52611.81;5032260;28;20098;-60
2023/06/26 03:08:39;;;;;;;7.32;4.30;;;;;;;-144.47;84.29;52603.84;5031998;28;20112;-65
2023/06/26 03:11:05;;;;;;;8.63;5.03;;;;;;;-144.47;84.75;52582.00;5031967;28;20032;-64
2023/06/26 03:13:30;;;;;;;12.45;4.93;;;;;;;-144.47;84.96;52591.94;5031580;28;20112;-63
2023/06/26 03:15:56;;;;;;;10.27;4.72;;;;;;;-144.47;85.03;52595.91;5031591;28;20406;-63
2023/06/26 03:18:21;;;;;;;7.82;4.60;;;;;;;-144.47;85.10;52597.91;5031802;28;20108;-64
2023/06/26 03:20:48;;;;;;;8.55;4.55;;;;;;;-144.47;85.38;52603.84;5031683;28;20084;-64
2023/06/26 03:23:13;;;;;;;12.30;4.38;;;;;;;-144.47;85.42;52617.75;5031637;28;20021;-63
2023/06/26 03:25:38;;;;;;;13.45;5.03;;;;;;;-144.47;85.47;52589.97;5031250;28;20065;-65
2023/06/26 03:28:04;;;;;;;9.93;4.38;;;;;;;-144.47;85.53;52593.94;5032320;28;20032;-66
2023/06/26 03:30:29;;;;;;;8.13;4.32;;;;;;;-144.47;85.40;52591.94;5030002;28;20025;-60
2023/06/26 03:32:54;;;;;;;12.07;4.82;;;;;;;-144.47;85.38;52633.66;5031326;28;20025;-66
2023/06/26 03:35:20;;;;;;;8.02;4.80;;;;;;;-144.47;85.59;52589.97;5031288;28;20029;-63
2023/06/26 03:37:45;;;;;;;15.02;5.80;;;;;;;-144.47;85.24;52599.88;5031630;28;20028;-65
2023/06/26 03:40:11;;;;;;;9.85;5.70;;;;;;;-144.47;85.25;52605.84;5031190;28;20038;-60
2023/06/26 03:42:36;;;;;;;17.48;4.78;;;;;;;-144.47;84.53;52589.97;5031110;28;20028;-63
2023/06/26 03:45:02;;;;;;;8.63;4.65;;;;;;;-144.47;84.43;52585.97;5031298;28;20393;-65
2023/06/26 03:47:27;;;;;;;8.38;4.93;;;;;;;-144.47;83.95;52599.88;5030749;28;20025;-65
2023/06/26 03:49:52;;;;;;;9.65;4.68;;;;;;;-144.47;83.40;52601.88;5030507;28;20034;-65
2023/06/26 03:52:18;;;;;;;9.43;4.55;;;;;;;-144.47;83.87;52595.91;5029827;28;20021;-65
2023/06/26 03:54:43;;;;;;;9.68;4.60;;;;;;;-144.47;83.79;52605.84;5013456;28;20076;-63
2023/06/26 03:57:09;;;;;;;8.63;5.07;;;;;;;-144.47;83.80;52611.81;5026416;28;20044;-65
2023/06/26 03:59:34;;;;;;;7.07;4.30;;;;;;;-144.47;83.34;52633.66;5031040;28;20060;-64
2023/06/26 04:01:59;;;;;;;14.73;5.22;;;;;;;-144.47;83.71;52593.94;5031211;28;20037;-66
2023/06/26 04:04:25;;;;;;;16.33;4.78;;;;;;;-144.47;83.72;52621.72;5031257;28;20464;-65
2023/06/26 04:06:50;;;;;;;11.07;4.80;;;;;;;-144.47;83.37;52603.84;5031067;28;20013;-65
2023/06/26 04:09:16;;;;;;;12.32;5.30;;;;;;;-144.47;82.77;52609.81;5031561;28;20157;-66
2023/06/26 04:11:41;;;;;;;8.50;4.85;;;;;;;-144.47;82.61;52607.84;5030990;28;20399;-65
2023/06/26 04:14:07;;;;;;;9.82;4.85;;;;;;;-144.47;82.50;52585.97;5030650;28;20068;-65
2023/06/26 04:16:32;;;;;;;11.02;4.85;;;;;;;-144.47;82.17;52613.78;5030982;28;20476;-65
2023/06/26 04:18:57;;;;;;;17.08;5.10;;;;;;;-144.47;82.07;52609.81;5031512;28;20094;-64
2023/06/26 04:21:24;;;;;;;11.90;4.78;;;;;;;-144.47;81.19;52609.81;5030774;28;20029;-66
2023/06/26 04:23:50;;;;;;;9.90;4.70;;;;;;;-144.47;81.46;52611.81;5030963;28;20487;-62
2023/06/26 04:26:16;;;;;;;7.68;4.32;;;;;;;-144.47;81.20;52613.78;5031192;28;20100;-64
2023/06/26 04:28:42;;;;;;;8.57;4.40;;;;;;;-144.47;80.66;52607.84;5013182;28;20021;-64
2023/06/26 04:31:08;;;;;;;9.18;4.55;;;;;;;-144.47;80.50;52607.84;5025212;28;20087;-63
2023/06/26 04:33:35;;;;;;;9.55;4.70;;;;;;;-144.47;79.94;52593.94;5029501;28;20387;-64
2023/06/26 04:36:03;;;;;;;11.00;4.70;;;;;;;-144.47;79.49;52617.75;5030569;28;20025;-65
2023/06/26 04:38:28;;;;;;;7.85;4.97;;;;;;;-144.47;79.61;52619.75;5031009;28;20310;-65
2023/06/26 04:40:53;;;;;;;9.57;5.03;;;;;;;-144.47;79.46;52631.66;5030582;28;20129;-64
2023/06/26 04:43:19;;;;;;;7.47;4.57;;;;;;;-144.47;79.29;52623.72;5030129;28;20025;-62
2023/06/26 04:45:44;;;;;;;9.52;5.03;;;;;;;-144.47;79.01;52603.84;5026739;28;20033;-65
2023/06/26 04:48:10;;;;;;;19.50;5.43;;;;;;;-144.47;78.28;52615.78;5018781;28;20125;-65
2023/06/26 04:50:35;;;;;;;12.65;5.30;;;;;;;-144.47;77.86;52593.94;5030352;28;20110;-65
2023/06/26 04:53:00;;;;;;;9.70;5.03;;;;;;;-144.47;77.64;52617.75;5024584;28;20445;-67
2023/06/26 04:55:27;;;;;;;8.60;4.72;;;;;;;-144.47;77.06;52637.63;5020548;28;20032;-64
2023/06/26 04:57:52;;;;;;;8.63;4.50;;;;;;;-144.47;76.68;52603.84;5005500;28;20028;-65
2023/06/26 05:00:18;;;;;;;11.38;4.55;;;;;;;-144.47;76.57;52607.84;5022692;28;20029;-67
2023/06/26 05:02:43;;;;;;;9.48;4.70;;;;;;;-144.47;76.29;52597.91;5022785;28;20052;-66
2023/06/26 05:05:10;;;;;;;12.05;5.32;;;;;;;-144.47;76.02;52615.78;5021374;28;20025;-67
2023/06/26 05:07:36;;;;;;;9.23;5.25;;;;;;;-144.47;75.96;52615.78;5021385;28;20026;-66
2023/06/26 05:10:01;;;;;;;12.77;4.57;;;;;;;-144.47;76.48;52621.72;5023746;28;20538;-67
2023/06/26 05:12:26;;;;;;;9.98;5.60;;;;;;;-144.47;76.58;52621.72;5024599;28;20037;-65
2023/06/26 05:14:52;;;;;;;9.27;4.80;;;;;;;-144.47;76.15;52603.84;5019007;28;20475;-66
2023/06/26 05:17:17;;;;;;;11.80;4.57;;;;;;;-144.47;75.21;52617.75;5027732;28;20450;-65
2023/06/26 05:19:42;;;;;;;10.32;4.85;;;;;;;-144.47;75.19;52595.91;5022982;28;20029;-66
2023/06/26 05:22:08;;;;;;;7.85;4.53;;;;;;;-144.47;74.99;52609.81;5025743;28;20032;-63
2023/06/26 05:24:38;;;;;;;16.88;7.13;;;;;;;-144.47;74.54;52629.69;5030044;28;20025;-66
2023/06/26 05:27:04;;;;;;;10.98;5.10;;;;;;;-144.47;73.06;52589.97;5023747;28;20045;-66
2023/06/26 05:29:33;;;;;;;8.38;4.75;;;;;;;-144.47;72.28;52601.88;5019594;28;20061;-64
2023/06/26 05:32:00;;;;;;;10.57;4.72;;;;;;;-144.47;71.75;52609.81;5029370;28;20096;-65
2023/06/26 05:34:31;;;;;;;10.30;5.03;;;;;;;-144.47;71.61;52601.88;5021171;28;20022;-65
2023/06/26 05:37:00;;;;;;;8.55;4.43;;;;;;;-144.47;71.06;52603.84;5025345;28;20428;-64
2023/06/26 05:39:26;;;;;;;9.75;5.05;;;;;;;-144.47;71.28;52613.78;5025851;28;20029;-63
2023/06/26 05:41:52;;;;;;;9.30;5.07;;;;;;;-144.47;70.75;52621.72;5028753;28;20027;-63
2023/06/26 05:44:17;;;;;;;11.45;5.00;;;;;;;-144.47;70.15;52637.63;5013820;28;20099;-64
2023/06/26 05:46:43;;;;;;;10.25;4.57;;;;;;;-144.47;70.17;52613.78;5030078;28;20017;-64
2023/06/26 05:49:09;;;;;;;8.63;4.90;;;;;;;-144.47;69.65;52613.78;5028694;28;20494;-63
2023/06/26 05:51:34;;;;;;;11.30;4.80;;;;;;;-144.47;69.69;52605.84;5028938;28;20061;-64
2023/06/26 05:54:00;;;;;;;10.05;4.95;;;;;;;-144.47;69.47;52617.75;5029206;28;20036;-61
2023/06/26 05:56:26;;;;;;;8.35;4.53;;;;;;;-144.47;68.72;52593.94;5028542;28;20101;-65
2023/06/26 05:58:52;;;;;;;9.82;4.45;;;;;;;-144.47;66.43;52627.69;5028173;28;20549;-65
2023/06/26 06:01:19;;;;;;;10.45;5.00;;;;;;;-144.47;66.13;52613.78;5028991;28;20100;-65
2023/06/26 06:03:45;;;;;;;10.27;4.78;;;;;;;-144.47;66.08;52631.66;5028892;28;20079;-65
2023/06/26 06:06:11;;;;;;;14.63;4.75;;;;;;;-144.47;65.84;52619.75;5029530;28;20063;-65
2023/06/26 06:08:36;;;;;;;11.88;5.95;;;;;;;-144.47;65.01;52621.72;5029284;28;20021;-65
2023/06/26 06:11:01;;;;;;;10.73;4.80;;;;;;;-144.47;65.12;52621.72;5031420;28;20036;-66
2023/06/26 06:13:28;;;;;;;7.00;4.15;;;;;;;-144.47;65.62;52637.63;5029531;28;20056;-62
2023/06/26 06:15:53;;;;;;;7.68;4.68;;;;;;;-144.47;66.15;52647.56;5032297;28;20084;-65
2023/06/26 06:18:18;;;;;;;12.13;5.63;;;;;;;-144.47;65.37;52613.78;5033704;28;20017;-66
2023/06/26 06:20:44;;;;;;;13.48;5.43;;;;;;;-144.47;65.17;52647.56;5034157;28;20025;-65
2023/06/26 06:23:10;;;;;;;11.68;5.15;;;;;;;-144.47;62.49;52625.72;5034481;28;20057;-65
2023/06/26 06:25:35;;;;;;;9.75;5.07;;;;;;;-144.47;61.56;52643.56;5022265;28;20021;-65
2023/06/26 06:28:01;;;;;;;10.52;4.63;;;;;;;-144.47;61.49;52641.59;5028841;28;20095;-63
2023/06/26 06:30:26;;;;;;;10.68;4.63;;;;;;;-144.47;59.75;52617.75;5040044;28;20021;-63
2023/06/26 06:32:52;;;;;;;12.25;5.18;;;;;;;-144.47;60.61;52627.69;5041940;28;20029;-65
2023/06/26 06:35:18;;;;;;;12.23;4.93;;;;;;;-144.47;60.28;52611.81;5015699;28;20483;-65
2023/06/26 06:37:44;;;;;;;11.15;4.90;;;;;;;-144.47;60.32;52625.72;5024987;28;20037;-65
2023/06/26 06:40:10;;;;;;;8.95;5.10;;;;;;;-144.47;60.47;52615.78;5021423;28;20036;-66
2023/06/26 06:42:36;;;;;;;12.75;4.97;;;;;;;-144.47;60.39;52641.59;5023203;28;20072;-67
2023/06/26 06:45:05;;;;;;;12.95;4.93;;;;;;;-144.47;61.36;52637.63;5023411;28;20033;-66
2023/06/26 06:47:32;;;;;;;19.00;5.25;;;;;;;-144.47;60.67;52623.72;5025323;28;20091;-66
2023/06/26 06:49:57;;;;;;;20.35;5.72;;;;;;;-144.47;60.67;52645.56;5023496;28;20025;-65
2023/06/26 06:52:23;;;;;;;13.52;5.25;;;;;;;-144.47;60.87;52639.59;5025734;28;20164;-66
2023/06/26 06:54:53;;;;;;;16.05;4.93;;;;;;;-144.47;60.47;52633.66;5025211;28;20036;-65
2023/06/26 06:57:19;;;;;;;17.60;5.88;;;;;;;-144.47;60.57;52635.63;5023486;28;20068;-65
2023/06/26 06:59:45;;;;;;;10.10;5.00;;;;;;;-144.47;60.61;52637.63;5023066;28;20038;-66
2023/06/26 07:02:10;;;;;;;11.65;5.43;;;;;;;-144.47;60.20;52625.72;5025212;28;20115;-65
2023/06/26 07:04:35;;;;;;;14.95;5.93;;;;;;;-144.47;59.88;52629.69;5024718;28;20080;-66
2023/06/26 07:07:01;;;;;;;17.38;5.18;;;;;;;-144.47;60.35;52649.53;5025310;28;20475;-66
2023/06/26 07:09:26;;;;;;;10.43;5.22;;;;;;;-144.47;60.42;52653.50;5023743;28;20116;-62
2023/06/26 07:11:51;;;;;;;19.17;6.28;;;;;;;-144.47;58.93;52635.63;5025676;28;20041;-64
2023/06/26 07:14:17;;;;;;;11.45;5.80;;;;;;;-144.47;58.56;52647.56;5006716;28;20377;-64
2023/06/26 07:16:42;;;;;;;10.88;5.15;;;;;;;-144.47;58.48;52651.53;5025480;28;20029;-63
2023/06/26 07:19:08;;;;;;;13.80;4.93;;;;;;;-144.47;58.27;52649.53;5023025;28;20330;-64
2023/06/26 07:21:33;;;;;;;11.15;5.20;;;;;;;-144.47;58.81;52649.53;5024459;28;20029;-65
2023/06/26 07:23:58;;;;;;;13.48;5.38;;;;;;;-144.47;58.47;52671.38;5025213;28;20070;-65
2023/06/26 07:26:24;;;;;;;19.08;6.15;;;;;;;-144.47;58.25;52651.53;5024518;28;20087;-64
2023/06/26 07:28:49;;;;;;;13.40;5.15;;;;;;;-144.47;57.24;52663.44;5022163;28;20504;-64
2023/06/26 07:31:16;;;;;;;9.82;4.80;;;;;;;-144.47;56.12;52679.31;5023699;28;20037;-63
2023/06/26 07:33:42;;;;;;;24.35;6.40;;;;;;;-144.47;56.96;52681.31;5024276;28;20021;-66
2023/06/26 07:36:07;;;;;;;20.58;5.60;;;;;;;-144.47;56.89;52657.47;5024774;28;20059;-65
2023/06/26 07:38:32;;;;;;;9.93;4.78;;;;;;;-144.47;56.38;52657.47;5007116;28;20025;-66
2023/06/26 07:40:58;;;;;;;11.30;5.10;;;;;;;-144.47;56.54;52679.31;5028536;28;20675;-63
2023/06/26 07:43:23;;;;;;;14.00;5.50;;;;;;;-144.47;56.90;52681.31;5031142;28;20475;-64
2023/06/26 07:45:51;;;;;;;10.32;5.30;;;;;;;-144.47;56.61;52657.47;5030208;28;20522;-64
2023/06/26 07:48:16;;;;;;;7.53;4.57;;;;;;;-144.47;56.79;52677.34;5031720;28;20500;-66
2023/06/26 07:50:42;;;;;;;12.90;5.32;;;;;;;-144.47;56.72;52679.31;5031412;28;20547;-65
2023/06/26 07:53:07;;;;;;;13.13;4.88;;;;;;;-144.47;56.98;52689.25;5031639;28;20498;-61
2023/06/26 07:55:33;;;;;;;8.00;4.75;;;;;;;-144.47;55.86;52683.31;5025058;28;20233;-65
2023/06/26 07:57:58;;;;;;;11.75;5.25;;;;;;;-144.47;56.49;52669.41;5030780;28;20423;-66
2023/06/26 08:00:23;;;;;;;17.60;4.63;;;;;;;-144.47;55.17;52679.31;5013207;28;20078;-64
2023/06/26 08:02:49;;;;;;;8.32;5.18;;;;;;;-144.47;54.53;52693.22;5030940;28;20030;-66
2023/06/26 08:05:14;;;;;;;8.43;4.97;;;;;;;-144.47;54.05;52679.31;5030957;28;20112;-62
2023/06/26 08:07:40;;;;;;;13.75;4.78;;;;;;;-144.47;54.00;52695.22;5031581;28;20057;-65
2023/06/26 08:10:05;;;;;;;14.70;5.55;;;;;;;-144.47;53.77;52669.41;5030985;28;20025;-65
2023/06/26 08:12:31;;;;;;;12.07;5.45;;;;;;;-144.47;54.05;52667.41;5030970;28;20430;-64
2023/06/26 08:14:56;;;;;;;7.78;4.63;;;;;;;-144.47;54.00;52699.19;5031196;28;20037;-62
2023/06/26 08:17:22;;;;;;;12.50;5.20;;;;;;;-144.47;53.09;52667.41;5031652;28;20537;-66
2023/06/26 08:19:47;;;;;;;8.45;5.00;;;;;;;-144.47;51.69;52677.34;5031482;28;20036;-63
2023/06/26 08:22:13;;;;;;;8.77;4.65;;;;;;;-144.47;51.99;52657.47;5031204;28;20029;-64
2023/06/26 08:24:38;;;;;;;11.80;4.78;;;;;;;-144.47;51.03;52665.44;5031006;28;20029;-65
2023/06/26 08:27:03;;;;;;;11.55;4.57;;;;;;;-144.47;51.15;52683.31;5031038;28;20041;-63
2023/06/26 08:29:29;;;;;;;13.05;5.03;;;;;;;-144.47;51.52;52695.22;5029549;28;20562;-65
2023/06/26 08:31:54;;;;;;;14.35;5.18;;;;;;;-144.47;52.20;52719.06;5022921;28;20078;-64
2023/06/26 08:34:20;;;;;;;10.43;5.07;;;;;;;-144.47;50.90;52721.03;5030186;28;20041;-65
2023/06/26 08:36:45;;;;;;;11.23;4.97;;;;;;;-144.47;49.71;52689.25;5013189;28;20116;-62
2023/06/26 08:39:11;;;;;;;9.07;5.00;;;;;;;-144.47;48.81;52681.31;5031008;28;20029;-67
2023/06/26 08:41:36;;;;;;;9.43;4.63;;;;;;;-144.47;48.40;52695.22;5030614;28;20025;-63
2023/06/26 08:44:04;;;;;;;9.27;4.40;;;;;;;-144.47;48.76;52683.31;5030995;28;20021;-66
2023/06/26 08:46:31;;;;;;;10.52;4.60;;;;;;;-144.47;48.34;52727.00;5030870;28;20518;-65
2023/06/26 08:49:00;;;;;;;9.43;4.85;;;;;;;-144.47;48.09;52707.13;5030476;28;20033;-66
2023/06/26 08:51:28;;;;;;;13.25;5.20;;;;;;;-144.47;48.40;52709.13;5030818;28;20489;-63
2023/06/26 08:53:58;;;;;;;9.60;5.00;;;;;;;-144.47;48.03;52703.16;5030219;28;20085;-63
2023/06/26 08:56:27;;;;;;;11.85;4.53;;;;;;;-144.47;47.16;52705.16;5025197;28;20558;-65
2023/06/26 08:58:53;;;;;;;17.85;4.97;;;;;;;-144.47;46.79;52711.09;5030378;28;20038;-65
2023/06/26 09:01:19;;;;;;;8.27;4.90;;;;;;;-144.47;46.15;52740.91;5030642;28;20135;-65
2023/06/26 09:03:44;;;;;;;8.27;4.13;;;;;;;-144.47;44.88;52723.03;5030100;28;20495;-65
2023/06/26 09:06:10;;;;;;;8.52;4.18;;;;;;;-144.47;45.02;52727.00;5029823;28;20025;-65
2023/06/26 09:08:35;;;;;;;7.88;4.60;;;;;;;-144.47;44.86;52719.06;5029376;28;20129;-64
2023/06/26 09:11:01;;;;;;;6.90;4.72;;;;;;;-144.47;45.36;52728.97;5029688;28;20072;-65
2023/06/26 09:13:29;;;;;;;14.50;5.05;;;;;;;-144.47;46.77;52728.97;5029926;28;20079;-65
2023/06/26 09:15:55;;;;;;;7.97;4.93;;;;;;;-144.47;45.37;52730.97;5029873;28;20059;-64
2023/06/26 09:18:21;;;;;;;8.77;4.22;;;;;;;-144.47;45.77;52744.88;5029982;28;20057;-66
2023/06/26 09:20:47;;;;;;;8.70;4.47;;;;;;;-144.47;45.08;52740.91;5029805;28;20115;-63
2023/06/26 09:23:13;;;;;;;14.45;4.40;;;;;;;-144.47;44.78;52723.03;5029387;28;20025;-64
2023/06/26 09:25:40;;;;;;;9.57;4.40;;;;;;;-144.47;42.83;52744.88;5029857;28;20035;-65
2023/06/26 09:28:05;;;;;;;9.55;4.40;;;;;;;-144.47;42.82;52713.09;5029655;28;20049;-65
2023/06/26 09:30:34;;;;;;;8.75;4.10;;;;;;;-144.47;43.40;52715.06;5021070;28;20479;-64
2023/06/26 09:33:38;;;;;;;8.70;4.47;;;;;;;-144.47;42.78;52754.81;5029590;28;20021;-66
2023/06/26 09:36:07;;;;;;;11.00;4.50;;;;;;;-144.47;41.45;52711.09;4988953;28;20454;-66
2023/06/26 09:38:35;;;;;;;6.68;4.18;;;;;;;-144.47;41.55;52780.63;5029821;28;20442;-61
2023/06/26 09:41:01;;;;;;;7.85;4.50;;;;;;;-144.47;42.02;52772.69;5029662;28;20025;-61
2023/06/26 09:43:26;;;;;;;7.20;4.10;;;;;;;-144.47;41.83;52772.69;5030034;28;20037;-66
2023/06/26 09:45:53;;;;;;;6.00;4.00;;;;;;;-144.47;41.18;52762.75;5029455;28;20310;-66
2023/06/26 09:48:19;;;;;;;8.27;4.68;;;;;;;-144.47;40.92;52766.72;5030319;28;20030;-65
2023/06/26 09:50:45;;;;;;;7.93;4.13;;;;;;;-144.47;40.36;52770.69;5029940;28;20022;-65
2023/06/26 09:53:13;;;;;;;9.32;4.00;;;;;;;-144.47;39.53;52764.72;5029996;28;20076;-64
2023/06/26 09:55:40;;;;;;;9.23;4.15;;;;;;;-144.47;38.60;52780.63;5029517;28;20021;-65
2023/06/26 09:58:06;;;;;;;9.35;4.43;;;;;;;-144.47;38.88;52760.75;5012025;28;20033;-65
2023/06/26 10:00:32;;;;;;;6.38;4.07;;;;;;;-144.47;39.49;52778.63;5029895;28;20092;-64
2023/06/26 10:02:59;;;;;;;6.97;3.97;;;;;;;-144.47;39.39;52776.66;5011961;28;20128;-63
2023/06/26 10:05:24;;;;;;;10.18;4.10;;;;;;;-144.47;38.95;52758.78;5029273;28;20045;-65
2023/06/26 10:07:52;;;;;;;6.88;4.15;;;;;;;-144.47;38.87;52782.59;5029625;28;20558;-65
2023/06/26 10:10:17;;;;;;;9.48;4.53;;;;;;;-144.47;38.88;52802.47;5029701;28;20261;-65
2023/06/26 10:12:47;;;;;;;9.15;4.35;;;;;;;-144.47;36.71;52820.34;5029497;28;20684;-62
2023/06/26 10:15:16;;;;;;;7.10;4.00;;;;;;;-144.47;37.11;52790.56;5028435;28;20014;-64
2023/06/26 10:17:43;;;;;;;8.27;4.70;;;;;;;-144.47;36.81;52778.63;5029735;28;20026;-65
2023/06/26 10:20:09;;;;;;;6.80;4.50;;;;;;;-144.47;37.10;52782.59;4995144;28;20181;-66
2023/06/26 10:22:45;;;;;;;9.00;4.25;;;;;;;-144.47;36.31;52820.34;5029587;28;20025;-64
2023/06/26 10:25:13;;;;;;;12.25;4.18;;;;;;;-144.47;36.73;52802.47;5011332;28;20021;-65
2023/06/26 10:27:43;;;;;;;7.57;4.53;;;;;;;-144.47;36.48;52786.56;5029251;28;20032;-64
2023/06/26 10:30:22;;;;;;;7.10;4.18;;;;;;;-144.47;35.68;52830.28;5004082;28;20022;-65
2023/06/26 10:32:48;;;;;;;8.30;3.92;;;;;;;-144.47;35.93;52820.34;5028333;28;20017;-63
2023/06/26 10:35:14;;;;;;;10.63;3.80;;;;;;;-144.47;36.33;52834.25;5028301;28;20033;-64
2023/06/26 10:37:45;;;;;;;6.85;4.03;;;;;;;-144.47;36.21;52814.38;5028612;28;20029;-65
2023/06/26 10:40:12;;;;;;;13.48;4.70;;;;;;;-144.47;36.05;52830.28;5028513;28;20036;-65
2023/06/26 10:42:39;;;;;;;12.85;4.15;;;;;;;-144.47;35.42;52824.31;5028026;28;20028;-64
2023/06/26 10:45:15;;;;;;;7.03;4.30;;;;;;;-144.47;34.77;52812.41;5027939;28;20032;-64
2023/06/26 10:47:41;;;;;;;6.47;4.25;;;;;;;-144.47;34.60;52840.19;5028608;28;20598;-62
2023/06/26 10:50:25;;;;;;;10.30;3.97;;;;;;;-144.47;34.22;52866.03;5029055;28;20104;-65
2023/06/26 10:53:24;;;;;;;6.68;4.10;;;;;;;-144.47;34.27;52836.22;5028318;28;20503;-65
2023/06/26 10:56:04;;;;;;;6.43;4.18;;;;;;;-144.47;34.32;52856.09;5022879;28;20029;-67
2023/06/26 10:58:33;;;;;;;6.75;3.80;;;;;;;-144.47;34.45;52883.91;5028121;28;20029;-65
2023/06/26 11:01:22;;;;;;;9.23;4.30;;;;;;;-144.47;34.42;52854.09;5029209;28;20722;-66
2023/06/26 11:04:02;;;;;;;8.38;3.97;;;;;;;-144.47;34.08;52836.22;5023065;28;20246;-67
2023/06/26 11:06:27;;;;;;;6.13;3.47;;;;;;;-144.47;34.27;52887.88;5032197;28;20017;-65
2023/06/26 11:08:58;;;;;;;9.80;4.60;;;;;;;-144.47;34.15;52864.03;5032735;28;20033;-63
2023/06/26 11:11:53;;;;;;;6.60;3.63;;;;;;;-144.47;34.21;52836.22;5032560;28;20127;-65